Time;durP1;ratioP1;P1;durP2;ratioP2;P2;SDS_P1;SDS_P2;PMS_P1;PMS_P2;Temp;Humidity;BMP_temperature;BMP_pressure;BME280_temperature;BME280_humidity;BME280_pressure;Samples;Min_cycle;Max_cycle;Signal;HPM_P1;HPM_P2
2022/04/03 00:00:40;;;;;;;4.83;4.40;;;-0.20;99.90;;;;;;5064705;28;20223;-45
2022/04/03 00:03:08;;;;;;;5.17;3.77;;;-0.20;99.90;;;;;;5057644;28;20377;-44
2022/04/03 00:05:38;;;;;;;8.40;4.77;;;-0.20;99.90;;;;;;5064428;28;20206;-45
2022/04/03 00:08:06;;;;;;;6.80;4.50;;;-0.10;99.90;;;;;;5055529;28;20210;-45
2022/04/03 00:10:34;;;;;;;5.80;4.20;;;-0.10;99.90;;;;;;5065045;28;20226;-44
2022/04/03 00:13:01;;;;;;;7.77;4.40;;;-0.20;99.90;;;;;;5048822;28;20667;-47
2022/04/03 00:15:28;;;;;;;7.37;4.83;;;-0.20;99.90;;;;;;5062759;28;20256;-45
2022/04/03 00:17:55;;;;;;;6.03;4.50;;;-0.20;99.90;;;;;;5063588;28;20222;-46
2022/04/03 00:20:22;;;;;;;8.40;5.20;;;-0.20;99.90;;;;;;5062015;28;20710;-44
2022/04/03 00:22:52;;;;;;;7.50;5.13;;;-0.20;99.90;;;;;;5063608;28;20287;-45
2022/04/03 00:25:20;;;;;;;6.33;4.20;;;-0.20;99.90;;;;;;5061389;28;20190;-45
2022/04/03 00:27:47;;;;;;;5.77;4.90;;;-0.20;99.90;;;;;;5049730;28;20314;-45
2022/04/03 00:30:14;;;;;;;5.77;5.13;;;-0.20;99.90;;;;;;5059952;28;20226;-49
2022/04/03 00:32:41;;;;;;;5.73;5.13;;;-0.20;99.90;;;;;;5061940;28;20207;-46
2022/04/03 00:35:09;;;;;;;9.87;5.30;;;-0.30;99.90;;;;;;5060852;28;20556;-46
2022/04/03 00:37:36;;;;;;;9.70;5.53;;;-0.30;99.90;;;;;;5063747;28;20215;-50
2022/04/03 00:40:05;;;;;;;9.00;6.00;;;-0.30;99.90;;;;;;5062260;28;20285;-49
2022/04/03 00:42:34;;;;;;;6.53;5.43;;;-0.20;99.90;;;;;;5063914;28;20203;-47
2022/04/03 00:45:02;;;;;;;10.57;5.53;;;-0.20;99.90;;;;;;5048070;28;20240;-47
2022/04/03 00:47:29;;;;;;;8.17;5.67;;;-0.20;99.90;;;;;;5062008;28;20215;-44
2022/04/03 00:49:56;;;;;;;7.77;5.77;;;-0.30;99.90;;;;;;5063711;28;20198;-46
2022/04/03 00:52:24;;;;;;;6.17;5.30;;;-0.30;99.90;;;;;;5061725;28;20256;-44
2022/04/03 00:54:51;;;;;;;6.93;5.50;;;-0.30;99.90;;;;;;5064021;28;20219;-44
2022/04/03 00:57:21;;;;;;;7.07;5.70;;;-0.30;99.90;;;;;;5059418;28;20266;-45
2022/04/03 00:59:49;;;;;;;9.00;5.27;;;-0.20;99.90;;;;;;5046953;28;20214;-46
2022/04/03 01:02:17;;;;;;;7.63;5.20;;;-0.20;99.90;;;;;;5059452;28;20198;-48
2022/04/03 01:04:44;;;;;;;10.47;5.60;;;-0.20;99.90;;;;;;5063933;28;20195;-42
2022/04/03 01:07:11;;;;;;;7.67;5.27;;;-0.20;99.90;;;;;;5054268;28;20234;-43
2022/04/03 01:09:38;;;;;;;8.13;5.43;;;-0.30;99.90;;;;;;5064867;28;20201;-42
2022/04/03 01:12:06;;;;;;;7.93;6.13;;;-0.30;99.90;;;;;;5060831;28;20683;-46
2022/04/03 01:14:36;;;;;;;8.70;5.97;;;-0.30;99.90;;;;;;5048059;28;20218;-43
2022/04/03 01:17:05;;;;;;;11.60;7.37;;;-0.30;99.90;;;;;;5057397;28;20216;-45
2022/04/03 01:19:32;;;;;;;10.17;6.60;;;-0.40;99.90;;;;;;5062179;28;20198;-44
2022/04/03 01:21:59;;;;;;;8.20;6.43;;;-0.40;99.90;;;;;;5062201;28;20227;-48
2022/04/03 01:24:27;;;;;;;10.87;7.17;;;-0.40;99.90;;;;;;5061154;28;20190;-43
2022/04/03 01:26:55;;;;;;;9.73;6.73;;;-0.40;99.90;;;;;;5062010;28;20241;-47
2022/04/03 01:29:23;;;;;;;9.40;6.83;;;-0.50;99.90;;;;;;5044623;28;20214;-44
2022/04/03 01:31:51;;;;;;;10.73;7.30;;;-0.50;99.90;;;;;;5062691;28;20219;-42
2022/04/03 01:34:20;;;;;;;8.80;6.07;;;-0.50;99.90;;;;;;5059096;28;20198;-43
2022/04/03 01:36:47;;;;;;;10.70;6.77;;;-0.50;99.90;;;;;;5062653;28;20220;-43
2022/04/03 01:39:14;;;;;;;12.33;6.97;;;-0.50;99.90;;;;;;5059221;28;20192;-42
2022/04/03 01:41:43;;;;;;;8.17;6.40;;;-0.50;99.90;;;;;;5063805;28;20715;-43
2022/04/03 01:44:12;;;;;;;10.43;6.27;;;-0.50;99.90;;;;;;5059081;28;20581;-43
2022/04/03 01:46:39;;;;;;;6.97;5.53;;;-0.50;99.90;;;;;;5048289;28;20226;-43
2022/04/03 01:49:07;;;;;;;6.80;5.57;;;-0.60;99.90;;;;;;5059745;28;20252;-47
2022/04/03 01:51:33;;;;;;;6.70;5.57;;;-0.60;99.90;;;;;;5062673;28;20683;-45
2022/04/03 01:54:00;;;;;;;6.40;5.23;;;-0.60;99.90;;;;;;5060980;28;20202;-47
2022/04/03 01:56:27;;;;;;;8.70;5.20;;;-0.60;99.90;;;;;;5060380;28;20214;-45
2022/04/03 01:58:55;;;;;;;6.97;4.63;;;-0.60;99.90;;;;;;5061970;28;20206;-45
2022/04/03 02:01:24;;;;;;;6.07;4.80;;;-0.60;99.90;;;;;;5047334;28;20209;-44
2022/04/03 02:03:51;;;;;;;5.33;4.83;;;-0.60;99.90;;;;;;5063153;28;21030;-44
2022/04/03 02:06:20;;;;;;;8.50;5.10;;;-0.60;99.90;;;;;;5058655;28;20294;-44
2022/04/03 02:08:47;;;;;;;7.40;5.40;;;-0.60;99.90;;;;;;5063097;28;20203;-45
2022/04/03 02:11:15;;;;;;;7.47;4.80;;;-0.70;99.90;;;;;;5058757;28;20215;-43
2022/04/03 02:13:42;;;;;;;7.57;5.20;;;-0.70;99.90;;;;;;5059070;28;20244;-44
2022/04/03 02:16:10;;;;;;;7.33;5.17;;;-0.70;99.90;;;;;;5058097;28;20237;-43
2022/04/03 02:18:39;;;;;;;7.10;5.50;;;-0.70;99.90;;;;;;5048589;28;20214;-43
2022/04/03 02:21:06;;;;;;;8.40;4.47;;;-0.80;99.90;;;;;;5059766;28;20297;-47
2022/04/03 02:23:33;;;;;;;6.90;5.13;;;-0.70;99.90;;;;;;5061743;28;20206;-45
2022/04/03 02:25:59;;;;;;;10.30;5.77;;;-0.80;99.90;;;;;;5060300;28;20230;-47
2022/04/03 02:28:26;;;;;;;6.03;5.13;;;-0.80;99.90;;;;;;5060619;28;20201;-45
2022/04/03 02:30:53;;;;;;;7.03;5.00;;;-0.70;99.90;;;;;;5061415;28;20268;-43
2022/04/03 02:33:20;;;;;;;6.30;4.43;;;-0.70;99.90;;;;;;5043915;28;20218;-46
2022/04/03 02:35:49;;;;;;;4.87;4.27;;;-0.70;99.90;;;;;;5060487;28;20214;-44
2022/04/03 02:38:17;;;;;;;9.17;5.07;;;-0.70;99.90;;;;;;5058291;28;20202;-43
2022/04/03 02:40:44;;;;;;;6.10;4.50;;;-0.70;99.90;;;;;;5062884;28;20836;-46
2022/04/03 02:43:11;;;;;;;7.23;4.80;;;-0.70;99.90;;;;;;5058339;28;20199;-46
2022/04/03 02:45:38;;;;;;;12.33;4.97;;;-0.70;99.90;;;;;;5061969;28;20214;-49
2022/04/03 02:48:07;;;;;;;5.67;4.13;;;-0.70;99.90;;;;;;5052775;28;20419;-48
2022/04/03 02:50:35;;;;;;;6.63;4.53;;;-0.70;99.90;;;;;;5061899;28;20280;-43
2022/04/03 02:53:03;;;;;;;8.73;4.30;;;-0.70;99.90;;;;;;5064347;28;20556;-46
2022/04/03 02:55:29;;;;;;;4.33;3.90;;;-0.70;99.90;;;;;;5065331;28;20195;-45
2022/04/03 02:57:57;;;;;;;8.00;4.67;;;-0.70;99.90;;;;;;5064587;28;20218;-48
2022/04/03 03:00:24;;;;;;;6.13;4.63;;;-0.70;99.90;;;;;;5063337;28;20206;-47
2022/04/03 03:02:52;;;;;;;6.90;4.57;;;-0.60;99.90;;;;;;5066222;28;20190;-46
2022/04/03 03:05:19;;;;;;;6.53;4.50;;;-0.70;99.90;;;;;;5048800;28;20278;-43
2022/04/03 03:07:48;;;;;;;7.37;4.63;;;-0.60;99.90;;;;;;5065364;28;20226;-43
2022/04/03 03:10:18;;;;;;;5.43;4.40;;;-0.60;99.90;;;;;;5054962;28;20214;-47
2022/04/03 03:12:46;;;;;;;6.23;4.00;;;-0.60;99.90;;;;;;5064900;28;20225;-43
2022/04/03 03:15:14;;;;;;;5.37;4.40;;;-0.60;99.90;;;;;;5061089;28;20230;-47
2022/04/03 03:17:42;;;;;;;5.37;4.40;;;-0.60;99.90;;;;;;5065525;28;20221;-43
2022/04/03 03:20:09;;;;;;;6.00;5.03;;;-0.70;99.90;;;;;;5047878;28;20222;-43
2022/04/03 03:22:37;;;;;;;6.73;4.47;;;-0.70;99.90;;;;;;5065768;28;20202;-44
2022/04/03 03:25:06;;;;;;;6.23;4.17;;;-0.80;99.90;;;;;;5061990;28;20205;-45
2022/04/03 03:27:36;;;;;;;6.57;4.40;;;-0.80;99.90;;;;;;5065294;28;20230;-46
2022/04/03 03:30:03;;;;;;;5.27;4.60;;;-0.80;99.90;;;;;;5062302;28;20278;-45
2022/04/03 03:32:29;;;;;;;8.53;4.67;;;-0.90;99.90;;;;;;5061358;28;20210;-45
2022/04/03 03:34:57;;;;;;;5.57;4.10;;;-0.90;99.90;;;;;;5063465;28;20210;-45
2022/04/03 03:37:24;;;;;;;6.33;4.87;;;-0.90;99.90;;;;;;5049011;28;20272;-44
2022/04/03 03:39:51;;;;;;;7.30;4.33;;;-0.90;99.90;;;;;;5064765;28;20226;-47
2022/04/03 03:42:18;;;;;;;6.47;4.30;;;-0.90;99.90;;;;;;5063066;28;20198;-45
2022/04/03 03:44:46;;;;;;;6.90;4.40;;;-0.90;99.90;;;;;;5065149;28;20235;-49
2022/04/03 03:47:14;;;;;;;6.33;4.80;;;-0.90;99.90;;;;;;5060714;28;20207;-48
2022/04/03 03:49:41;;;;;;;9.13;4.90;;;-0.90;99.90;;;;;;5065498;28;20226;-49
2022/04/03 03:52:09;;;;;;;6.57;4.40;;;-0.90;99.90;;;;;;5047601;28;20981;-49
2022/04/03 03:54:36;;;;;;;7.00;4.83;;;-0.90;99.90;;;;;;5065279;28;20218;-49
2022/04/03 03:57:03;;;;;;;6.57;4.73;;;-0.90;99.90;;;;;;5061490;28;20732;-46
2022/04/03 03:59:30;;;;;;;5.10;4.03;;;-0.90;99.90;;;;;;5064359;28;20198;-45
2022/04/03 04:01:58;;;;;;;6.40;4.83;;;-1.00;99.90;;;;;;5056237;28;20540;-46
2022/04/03 04:04:25;;;;;;;4.77;4.27;;;-1.00;99.90;;;;;;5063387;28;20198;-44
2022/04/03 04:06:53;;;;;;;6.90;4.43;;;-1.00;99.90;;;;;;5056481;28;20233;-48
2022/04/03 04:09:20;;;;;;;6.07;4.10;;;-0.90;99.90;;;;;;5055614;28;20286;-47
2022/04/03 04:11:47;;;;;;;4.50;4.10;;;-1.00;99.90;;;;;;5064722;28;20211;-46
2022/04/03 04:14:14;;;;;;;8.07;4.53;;;-1.00;99.90;;;;;;5061049;28;20202;-51
2022/04/03 04:16:42;;;;;;;9.10;4.40;;;-1.00;99.90;;;;;;5063559;28;20294;-45
2022/04/03 04:19:10;;;;;;;7.23;4.80;;;-1.00;99.90;;;;;;5060730;28;20194;-45
2022/04/03 04:21:38;;;;;;;5.97;4.00;;;-1.00;99.90;;;;;;5065159;28;20663;-47
2022/04/03 04:24:05;;;;;;;6.43;4.57;;;-1.00;99.90;;;;;;5046496;28;20234;-50
2022/04/03 04:26:32;;;;;;;5.73;4.03;;;-1.00;99.90;;;;;;5064160;28;20222;-47
2022/04/03 04:28:59;;;;;;;4.17;3.77;;;-1.00;99.90;;;;;;5058742;28;20198;-48
2022/04/03 04:31:26;;;;;;;3.73;3.43;;;-1.00;99.90;;;;;;5063218;28;20293;-47
2022/04/03 04:33:53;;;;;;;12.30;4.40;;;-1.00;99.90;;;;;;5061787;28;20213;-49
2022/04/03 04:36:21;;;;;;;7.27;4.03;;;-1.10;99.90;;;;;;5057836;28;20214;-44
2022/04/03 04:38:48;;;;;;;7.03;4.00;;;-1.00;99.90;;;;;;5050900;28;20206;-44
2022/04/03 04:41:15;;;;;;;5.67;4.33;;;-1.00;99.90;;;;;;5060536;28;20248;-48
2022/04/03 04:43:42;;;;;;;6.47;4.60;;;-1.00;99.90;;;;;;5064314;28;20191;-44
2022/04/03 04:46:09;;;;;;;4.53;4.00;;;-1.00;99.90;;;;;;5058170;28;20218;-47
2022/04/03 04:48:36;;;;;;;6.63;3.67;;;-1.00;99.90;;;;;;5059194;28;20293;-43
2022/04/03 04:51:03;;;;;;;7.13;3.87;;;-1.00;99.90;;;;;;5058629;28;20548;-46
2022/04/03 04:53:31;;;;;;;4.00;3.60;;;-1.00;99.90;;;;;;5058485;28;20218;-46
2022/04/03 04:55:58;;;;;;;6.17;4.13;;;-1.10;99.90;;;;;;5042755;28;20223;-45
2022/04/03 04:58:26;;;;;;;4.43;4.03;;;-1.00;99.90;;;;;;5057961;28;20207;-43
2022/04/03 05:00:53;;;;;;;6.03;4.27;;;-1.00;99.90;;;;;;5061725;28;20203;-48
2022/04/03 05:03:20;;;;;;;4.03;3.73;;;-1.00;99.90;;;;;;5053849;28;20931;-47
2022/04/03 05:05:47;;;;;;;5.90;4.17;;;-1.00;99.90;;;;;;5060339;28;20210;-47
2022/04/03 05:08:14;;;;;;;6.57;4.17;;;-1.00;99.90;;;;;;5051598;28;20209;-43
2022/04/03 05:10:44;;;;;;;4.27;3.87;;;-1.00;99.90;;;;;;5046046;28;20211;-46
2022/04/03 05:13:11;;;;;;;5.00;3.73;;;-0.90;99.90;;;;;;5057023;28;20238;-47
2022/04/03 05:15:38;;;;;;;6.30;3.77;;;-0.90;99.90;;;;;;5054634;28;20183;-46
2022/04/03 05:18:06;;;;;;;5.10;3.77;;;-0.90;99.90;;;;;;5058506;28;20632;-46
2022/04/03 05:20:34;;;;;;;5.20;4.00;;;-0.90;99.90;;;;;;5058087;28;20198;-45
2022/04/03 05:23:01;;;;;;;8.43;4.10;;;-0.80;99.90;;;;;;5061640;28;20195;-45
2022/04/03 05:25:28;;;;;;;7.47;3.90;;;-0.80;99.90;;;;;;5038167;28;20234;-46
2022/04/03 05:27:57;;;;;;;6.23;4.20;;;-0.80;99.90;;;;;;5060333;28;20214;-44
2022/04/03 05:30:24;;;;;;;3.83;3.43;;;-0.80;99.90;;;;;;5052031;28;20217;-46
2022/04/03 05:32:50;;;;;;;4.23;3.77;;;-0.70;99.90;;;;;;5057725;28;20221;-43
2022/04/03 05:35:18;;;;;;;6.33;3.53;;;-0.70;99.90;;;;;;5046981;28;20214;-43
2022/04/03 05:37:45;;;;;;;7.43;4.10;;;-0.60;99.90;;;;;;5056918;28;20214;-42
2022/04/03 05:40:13;;;;;;;4.10;3.63;;;-0.60;99.90;;;;;;5057471;28;20198;-48
2022/04/03 05:42:40;;;;;;;6.90;4.10;;;-0.40;99.90;;;;;;5042333;28;20285;-46
2022/04/03 05:45:09;;;;;;;4.10;3.60;;;-0.30;99.90;;;;;;5056790;28;20203;-50
2022/04/03 05:47:37;;;;;;;5.60;3.23;;;-0.20;99.90;;;;;;5056253;28;20206;-46
2022/04/03 05:50:05;;;;;;;4.93;3.67;;;-0.10;99.90;;;;;;5057076;28;20206;-42
2022/04/03 05:52:40;;;;;;;6.77;3.87;;;-0.10;99.90;;;;;;5054904;28;20272;-45
2022/04/03 05:55:08;;;;;;;4.50;3.87;;;0.00;99.90;;;;;;5054886;28;20687;-43
2022/04/03 05:57:36;;;;;;;4.23;3.70;;;0.10;99.90;;;;;;5042375;28;21212;-43
2022/04/03 06:00:04;;;;;;;3.90;3.50;;;0.20;99.90;;;;;;5062540;28;20195;-46
2022/04/03 06:02:59;;;;;;;4.00;3.60;;;0.20;99.90;;;;;;5058924;28;20194;-46
2022/04/03 06:05:28;;;;;;;7.83;4.37;;;0.30;99.90;;;;;;5051666;28;20269;-46
2022/04/03 06:07:55;;;;;;;5.27;3.83;;;0.40;99.90;;;;;;5059820;28;20912;-47
2022/04/03 06:10:23;;;;;;;5.37;3.63;;;0.40;99.90;;;;;;5048800;28;20224;-50
2022/04/03 06:12:59;;;;;;;4.23;3.20;;;0.50;99.90;;;;;;5041573;28;20223;-47
2022/04/03 06:15:28;;;;;;;4.20;3.37;;;0.60;99.90;;;;;;5059002;28;20199;-47
2022/04/03 06:17:55;;;;;;;8.77;3.03;;;0.70;99.90;;;;;;5054497;28;20242;-46
2022/04/03 06:20:24;;;;;;;5.03;3.40;;;0.70;99.90;;;;;;5055450;28;20205;-48
2022/04/03 06:22:51;;;;;;;4.63;3.53;;;0.70;99.90;;;;;;5056503;28;20201;-44
2022/04/03 06:25:18;;;;;;;4.23;3.40;;;0.80;99.90;;;;;;5059608;28;20207;-46
2022/04/03 06:27:45;;;;;;;7.60;3.80;;;0.90;99.90;;;;;;5053075;28;20218;-42
2022/04/03 06:30:12;;;;;;;5.50;3.47;;;1.00;99.90;;;;;;5048108;28;20207;-44
2022/04/03 06:32:40;;;;;;;4.37;3.20;;;1.10;99.90;;;;;;5056980;28;20224;-45
2022/04/03 06:35:08;;;;;;;4.40;3.27;;;1.20;99.90;;;;;;5064716;28;20210;-43
2022/04/03 06:37:37;;;;;;;5.53;3.60;;;1.20;99.90;;;;;;5058763;28;20234;-45
2022/04/03 06:40:05;;;;;;;6.50;2.87;;;1.30;99.90;;;;;;5062860;28;20678;-43
2022/04/03 06:42:32;;;;;;;6.60;3.17;;;1.40;99.90;;;;;;5056215;28;20807;-44
2022/04/03 06:45:00;;;;;;;5.63;3.27;;;1.50;99.90;;;;;;5047897;28;20668;-48
2022/04/03 06:47:28;;;;;;;3.40;2.77;;;1.50;99.90;;;;;;5051006;28;20323;-49
2022/04/03 06:49:55;;;;;;;5.80;2.93;;;1.60;99.90;;;;;;5064510;28;20740;-43
2022/04/03 06:52:22;;;;;;;4.27;2.43;;;1.70;99.90;;;;;;5061710;28;20668;-44
2022/04/03 06:54:50;;;;;;;5.20;2.70;;;1.70;99.90;;;;;;5060829;28;20199;-45
2022/04/03 06:57:18;;;;;;;3.87;2.93;;;1.80;99.90;;;;;;5058042;28;20719;-45
2022/04/03 06:59:45;;;;;;;4.77;2.47;;;1.90;99.90;;;;;;5046048;28;20215;-43
2022/04/03 07:02:12;;;;;;;4.50;2.70;;;2.00;99.90;;;;;;5063166;28;20211;-46
2022/04/03 07:04:39;;;;;;;2.90;2.53;;;2.00;99.90;;;;;;5052748;28;22844;-43
2022/04/03 07:07:06;;;;;;;4.33;2.40;;;2.10;99.90;;;;;;5061742;28;20218;-44
2022/04/03 07:09:38;;;;;;;2.50;2.30;;;2.10;99.90;;;;;;5058517;28;20189;-44
2022/04/03 07:12:08;;;;;;;3.77;2.70;;;2.20;99.90;;;;;;5062495;28;20286;-44
2022/04/03 07:14:34;;;;;;;4.30;2.37;;;2.20;99.90;;;;;;5039549;28;20199;-45
2022/04/03 07:17:01;;;;;;;3.53;2.43;;;2.20;99.90;;;;;;5060998;28;20636;-45
2022/04/03 07:19:29;;;;;;;3.00;2.53;;;2.20;99.90;;;;;;5051805;28;20704;-42
2022/04/03 07:21:57;;;;;;;3.70;2.73;;;2.20;99.90;;;;;;5062626;28;20221;-43
2022/04/03 07:24:25;;;;;;;3.60;3.10;;;2.30;99.90;;;;;;5053624;28;20245;-45
2022/04/03 07:26:52;;;;;;;5.13;2.87;;;2.30;99.90;;;;;;5061363;28;20224;-43
2022/04/03 07:29:20;;;;;;;4.00;2.47;;;2.40;99.90;;;;;;5052261;28;20205;-45
2022/04/03 07:31:46;;;;;;;2.70;2.20;;;2.40;99.90;;;;;;5047985;28;20209;-49
2022/04/03 07:34:13;;;;;;;2.40;2.20;;;2.50;99.90;;;;;;5062062;28;20753;-47
2022/04/03 07:36:40;;;;;;;3.43;3.13;;;2.50;99.90;;;;;;5060626;28;20224;-45
2022/04/03 07:39:09;;;;;;;2.87;2.50;;;2.50;99.90;;;;;;5059455;28;20201;-51
2022/04/03 07:41:36;;;;;;;2.47;2.27;;;2.50;99.90;;;;;;5065939;28;20211;-46
2022/04/03 07:44:04;;;;;;;4.57;2.97;;;2.50;99.90;;;;;;5058650;28;20260;-48
2022/04/03 07:46:31;;;;;;;2.43;2.23;;;2.50;99.90;;;;;;5047231;28;20230;-46
2022/04/03 07:48:59;;;;;;;4.37;2.80;;;2.50;99.90;;;;;;5063409;28;20204;-46
2022/04/03 07:51:27;;;;;;;3.07;2.77;;;2.50;99.90;;;;;;5058651;28;20506;-44
2022/04/03 07:53:54;;;;;;;4.70;2.27;;;2.50;99.90;;;;;;5061695;28;20678;-46
2022/04/03 07:56:21;;;;;;;3.50;2.80;;;2.60;99.90;;;;;;5055083;28;20232;-44
2022/04/03 07:58:49;;;;;;;3.07;2.50;;;2.60;99.90;;;;;;5064925;28;20204;-50
2022/04/03 08:01:15;;;;;;;2.70;2.50;;;2.60;99.90;;;;;;5055482;28;20263;-45
2022/04/03 08:03:44;;;;;;;4.37;2.60;;;2.70;99.90;;;;;;5051485;28;20244;-45
2022/04/03 08:06:10;;;;;;;3.47;2.57;;;2.70;99.90;;;;;;5060626;28;20228;-47
2022/04/03 08:08:37;;;;;;;3.00;2.70;;;2.80;99.90;;;;;;5060600;28;20298;-43
2022/04/03 08:11:04;;;;;;;3.90;2.83;;;3.00;99.90;;;;;;5059773;28;20208;-46
2022/04/03 08:13:31;;;;;;;6.43;2.93;;;3.20;99.90;;;;;;5061901;28;20278;-49
2022/04/03 08:15:58;;;;;;;4.00;3.10;;;3.40;99.90;;;;;;5062146;28;20914;-45
2022/04/03 08:18:25;;;;;;;3.50;2.83;;;3.30;99.90;;;;;;5042373;28;20213;-48
2022/04/03 08:20:53;;;;;;;2.77;2.43;;;3.40;99.90;;;;;;5063945;28;20208;-46
2022/04/03 08:23:19;;;;;;;3.60;2.77;;;3.50;99.90;;;;;;5058516;28;20206;-47
2022/04/03 08:25:48;;;;;;;3.33;3.03;;;3.50;99.90;;;;;;5062063;28;20221;-46
2022/04/03 08:28:16;;;;;;;3.20;2.90;;;3.60;99.90;;;;;;5055060;28;20879;-46
2022/04/03 08:30:43;;;;;;;3.33;2.30;;;3.50;99.90;;;;;;5063991;28;20200;-47
2022/04/03 08:33:10;;;;;;;3.10;2.13;;;3.50;99.90;;;;;;5043621;28;20283;-47
2022/04/03 08:35:40;;;;;;;2.80;2.30;;;3.40;99.90;;;;;;5063304;28;20792;-46
2022/04/03 08:38:10;;;;;;;3.67;3.10;;;3.40;99.90;;;;;;5056525;28;20244;-49
2022/04/03 08:40:37;;;;;;;3.80;2.80;;;3.40;99.90;;;;;;5064234;28;20205;-48
2022/04/03 08:43:06;;;;;;;3.30;2.83;;;3.40;99.90;;;;;;5056122;28;20731;-47
2022/04/03 08:45:33;;;;;;;5.23;2.70;;;3.50;99.90;;;;;;5062632;28;20251;-45
2022/04/03 08:48:01;;;;;;;3.97;2.70;;;3.60;99.90;;;;;;5057024;28;20226;-49
2022/04/03 08:50:29;;;;;;;3.23;2.93;;;3.70;99.90;;;;;;5047917;28;21024;-46
2022/04/03 08:52:59;;;;;;;5.10;2.20;;;3.90;99.90;;;;;;5062048;28;20205;-50
2022/04/03 08:55:27;;;;;;;3.23;2.50;;;4.00;99.90;;;;;;5056756;28;20479;-45
2022/04/03 08:57:54;;;;;;;3.13;2.20;;;3.90;99.90;;;;;;5064370;28;20697;-47
2022/04/03 09:00:22;;;;;;;4.17;2.23;;;4.00;99.90;;;;;;5055471;28;20236;-46
2022/04/03 09:02:50;;;;;;;2.40;1.70;;;4.00;99.90;;;;;;5066525;28;20201;-45
2022/04/03 09:05:17;;;;;;;2.73;1.77;;;4.10;99.90;;;;;;5039505;28;21062;-45
2022/04/03 09:07:45;;;;;;;2.57;2.20;;;4.20;99.90;;;;;;5062450;28;20300;-45
2022/04/03 09:10:13;;;;;;;5.50;2.40;;;4.40;99.90;;;;;;5053982;28;20206;-48
2022/04/03 09:12:46;;;;;;;3.90;2.07;;;4.60;99.90;;;;;;5059753;28;20202;-46
2022/04/03 09:15:15;;;;;;;5.60;2.10;;;4.80;99.90;;;;;;5052945;28;20506;-47
2022/04/03 09:17:44;;;;;;;2.47;2.27;;;4.90;99.90;;;;;;5063279;28;20218;-46
2022/04/03 09:20:14;;;;;;;3.47;2.20;;;5.00;99.90;;;;;;5042204;28;20281;-50
2022/04/03 09:22:42;;;;;;;2.50;1.97;;;5.20;99.90;;;;;;5057600;28;20206;-49
2022/04/03 09:25:11;;;;;;;3.27;2.17;;;5.20;99.90;;;;;;5060733;28;20233;-49
2022/04/03 09:27:49;;;;;;;4.50;2.30;;;5.20;99.90;;;;;;5060103;28;20214;-50
2022/04/03 09:30:17;;;;;;;2.63;1.83;;;5.30;99.90;;;;;;5058052;28;20206;-49
2022/04/03 09:32:48;;;;;;;7.73;2.50;;;5.40;99.90;;;;;;5059100;28;20259;-47
2022/04/03 09:35:15;;;;;;;3.60;1.67;;;5.60;99.90;;;;;;5058035;28;20206;-46
2022/04/03 09:38:04;;;;;;;2.67;1.83;;;5.60;99.90;;;;;;5038064;28;20225;-50
2022/04/03 09:40:33;;;;;;;6.63;2.47;;;5.70;99.90;;;;;;5056222;28;20200;-47
2022/04/03 09:43:14;;;;;;;4.37;2.10;;;5.80;99.90;;;;;;5059730;28;20194;-44
2022/04/03 09:45:45;;;;;;;5.80;1.80;;;5.80;99.90;;;;;;5053920;28;20288;-46
2022/04/03 09:48:23;;;;;;;2.67;1.50;;;5.90;99.90;;;;;;5063133;28;20300;-47
2022/04/03 09:51:03;;;;;;;4.50;2.10;;;6.00;99.90;;;;;;5055503;28;20226;-47
2022/04/03 09:53:40;;;;;;;2.80;1.63;;;6.00;99.90;;;;;;5046850;28;20711;-47
2022/04/03 09:56:08;;;;;;;5.77;1.70;;;6.20;99.90;;;;;;5051750;28;20599;-48
2022/04/03 09:58:45;;;;;;;4.60;1.63;;;6.30;99.90;;;;;;5060514;28;20284;-49
2022/04/03 10:01:23;;;;;;;4.10;1.47;;;6.40;99.90;;;;;;5062425;28;20206;-47
2022/04/03 10:03:50;;;;;;;2.30;1.27;;;6.60;99.90;;;;;;5059703;28;20244;-46
2022/04/03 10:06:17;;;;;;;2.60;1.30;;;6.70;99.90;;;;;;5057648;28;20222;-50
2022/04/03 10:08:46;;;;;;;7.23;1.50;;;6.70;99.90;;;;;;5051625;28;20915;-45
2022/04/03 10:11:13;;;;;;;2.83;1.30;;;6.80;99.90;;;;;;5057917;28;20210;-46
2022/04/03 10:13:43;;;;;;;4.47;1.10;;;6.80;99.90;;;;;;5059245;28;20683;-50
2022/04/03 10:16:10;;;;;;;1.97;1.00;;;6.70;99.90;;;;;;5059605;28;20303;-47
2022/04/03 10:18:37;;;;;;;4.93;1.00;;;6.70;99.90;;;;;;5059974;28;20209;-48
2022/04/03 10:21:05;;;;;;;4.93;1.13;;;6.80;99.90;;;;;;5058919;28;20281;-47
2022/04/03 10:23:33;;;;;;;1.77;0.80;;;6.70;99.90;;;;;;5044894;28;20199;-50
2022/04/03 10:26:02;;;;;;;1.67;1.00;;;6.70;99.90;;;;;;5052592;28;20225;-49
2022/04/03 10:28:29;;;;;;;1.50;1.10;;;6.70;99.90;;;;;;5053562;28;20203;-48
2022/04/03 10:31:06;;;;;;;1.10;0.70;;;6.60;99.90;;;;;;5058829;28;20921;-45
2022/04/03 10:33:38;;;;;;;1.70;0.87;;;6.50;99.90;;;;;;5065754;28;20300;-51
2022/04/03 10:36:06;;;;;;;1.70;0.90;;;6.00;99.90;;;;;;5066474;28;20690;-46
2022/04/03 10:38:38;;;;;;;2.50;0.80;;;5.60;99.90;;;;;;5046457;28;21065;-51
2022/04/03 10:41:06;;;;;;;2.17;0.90;;;5.30;99.90;;;;;;5059891;28;20701;-46
2022/04/03 10:43:40;;;;;;;3.77;0.90;;;5.10;99.90;;;;;;5049974;28;20225;-48
2022/04/03 10:46:08;;;;;;;2.10;0.77;;;4.90;99.90;;;;;;5057501;28;20226;-52
2022/04/03 10:48:36;;;;;;;2.70;1.10;;;4.80;99.90;;;;;;5053050;28;20204;-49
2022/04/03 10:51:10;;;;;;;1.80;0.97;;;4.80;99.90;;;;;;5058821;28;20198;-46
2022/04/03 10:53:39;;;;;;;1.77;0.50;;;4.80;99.90;;;;;;5047793;28;20214;-47
2022/04/03 10:56:10;;;;;;;0.47;0.20;;;4.70;99.90;;;;;;5053614;28;20252;-45
2022/04/03 10:58:43;;;;;;;1.13;0.30;;;4.50;99.90;;;;;;5057278;28;20202;-47
2022/04/03 11:01:27;;;;;;;0.77;0.30;;;4.40;99.90;;;;;;5055020;28;20671;-51
2022/04/03 11:03:56;;;;;;;0.47;0.30;;;4.40;99.90;;;;;;5059116;28;20876;-50
2022/04/03 11:06:31;;;;;;;1.53;0.40;;;4.40;99.90;;;;;;5060478;28;20230;-46
2022/04/03 11:09:06;;;;;;;0.40;0.40;;;4.50;99.90;;;;;;5055180;28;20197;-50
2022/04/03 11:11:52;;;;;;;1.33;0.47;;;4.60;99.90;;;;;;5050389;28;20229;-55
2022/04/03 11:14:52;;;;;;;1.37;0.60;;;4.70;99.90;;;;;;5054820;28;20215;-52
2022/04/03 11:17:41;;;;;;;0.50;0.50;;;4.80;99.90;;;;;;5062299;28;20280;-55
2022/04/03 11:20:08;;;;;;;1.87;0.63;;;4.90;99.90;;;;;;5058217;28;20281;-56
2022/04/03 11:22:36;;;;;;;0.60;0.40;;;5.10;99.90;;;;;;5060958;28;20714;-50
2022/04/03 11:25:04;;;;;;;1.63;0.40;;;5.20;99.90;;;;;;5041636;28;20551;-56
2022/04/03 11:27:31;;;;;;;2.00;0.60;;;5.40;99.90;;;;;;5059956;28;20230;-56
2022/04/03 11:29:59;;;;;;;0.97;0.40;;;5.60;99.90;;;;;;5056225;28;20210;-54
2022/04/03 11:32:28;;;;;;;3.47;1.07;;;5.80;99.90;;;;;;5063157;28;20198;-51
2022/04/03 11:34:58;;;;;;;1.63;0.60;;;6.00;99.90;;;;;;5062141;28;20219;-55
2022/04/03 11:37:25;;;;;;;2.93;0.50;;;6.20;99.90;;;;;;5063344;28;20268;-51
2022/04/03 11:39:53;;;;;;;2.63;0.70;;;6.40;99.90;;;;;;5057632;28;20221;-55
2022/04/03 11:42:23;;;;;;;1.60;0.70;;;6.60;99.90;;;;;;5052231;28;20207;-51
2022/04/03 11:44:53;;;;;;;3.60;0.80;;;6.80;99.90;;;;;;5057734;28;20198;-53
2022/04/03 11:47:21;;;;;;;4.77;0.80;;;7.10;99.90;;;;;;5057496;28;20218;-52
2022/04/03 11:50:05;;;;;;;2.50;1.10;;;7.30;99.90;;;;;;5061522;28;20205;-56
2022/04/03 11:52:35;;;;;;;2.53;1.00;;;7.60;99.90;;;;;;5064655;28;20209;-52
2022/04/03 11:55:02;;;;;;;1.40;0.90;;;7.80;99.90;;;;;;5054725;28;20226;-50
2022/04/03 11:57:29;;;;;;;1.60;0.70;;;7.70;99.90;;;;;;5049877;28;20297;-52
2022/04/03 11:59:56;;;;;;;2.53;0.80;;;7.50;99.90;;;;;;5055291;28;20206;-51
2022/04/03 12:02:22;;;;;;;2.97;0.70;;;7.40;99.90;;;;;;5053091;28;20193;-45
2022/04/03 12:04:50;;;;;;;1.47;0.67;;;7.20;99.90;;;;;;5063207;28;20276;-51
2022/04/03 12:07:17;;;;;;;1.80;0.90;;;7.00;99.90;;;;;;5057534;28;20229;-49
2022/04/03 12:09:45;;;;;;;2.33;0.60;;;6.80;99.90;;;;;;5058156;28;20636;-56
2022/04/03 12:12:12;;;;;;;2.77;0.70;;;6.70;99.90;;;;;;5047391;28;23449;-52
2022/04/03 12:14:42;;;;;;;1.90;0.73;;;6.70;99.90;;;;;;5058416;28;20219;-46
2022/04/03 12:17:10;;;;;;;0.40;0.40;;;6.50;99.90;;;;;;5059319;28;20210;-47
2022/04/03 12:19:39;;;;;;;0.70;0.23;;;6.30;99.90;;;;;;5062932;28;20198;-47
2022/04/03 12:22:10;;;;;;;1.40;0.27;;;6.00;99.90;;;;;;5058241;28;20200;-47
2022/04/03 12:24:38;;;;;;;1.50;0.40;;;5.70;99.90;;;;;;5054774;28;20232;-55
2022/04/03 12:27:08;;;;;;;0.70;0.30;;;5.50;99.90;;;;;;5044637;28;21254;-54
2022/04/03 12:29:36;;;;;;;2.60;0.50;;;5.20;99.90;;;;;;5059240;28;20198;-56
2022/04/03 12:32:05;;;;;;;1.03;0.50;;;5.00;99.90;;;;;;5060407;28;20202;-55
2022/04/03 12:34:34;;;;;;;1.50;0.53;;;4.80;99.90;;;;;;5063415;28;20214;-52
2022/04/03 12:37:02;;;;;;;2.07;0.77;;;4.70;99.90;;;;;;5055506;28;20229;-51
2022/04/03 12:39:42;;;;;;;0.63;0.47;;;4.70;99.90;;;;;;5054277;28;20202;-50
2022/04/03 12:42:15;;;;;;;1.03;0.67;;;4.80;99.90;;;;;;5044308;28;20264;-50
2022/04/03 12:44:44;;;;;;;5.10;0.80;;;4.90;99.90;;;;;;5065756;28;20655;-50
2022/04/03 12:47:16;;;;;;;4.87;0.83;;;5.00;99.90;;;;;;5054046;28;20226;-50
2022/04/03 12:49:47;;;;;;;0.63;0.50;;;5.30;99.90;;;;;;5063419;28;20210;-54
2022/04/03 12:52:20;;;;;;;2.47;0.57;;;5.60;99.90;;;;;;5059280;28;20925;-54
2022/04/03 12:54:48;;;;;;;2.83;0.80;;;5.80;99.90;;;;;;5057740;28;20222;-56
2022/04/03 13:00:21;;;;;;;1.23;0.53;;;6.30;99.90;;;;;;5024251;28;20265;-55
2022/04/03 13:02:49;;;;;;;1.53;0.63;;;6.50;99.90;;;;;;5048579;28;20218;-59